createdAt,value
2023-01-11T00:03:08.402Z,8.37
2023-01-11T00:08:01.784Z,12.63
2023-01-11T00:12:55.071Z,18.67
2023-01-11T00:17:50.880Z,8.68
2023-01-11T00:22:45.740Z,5.50
2023-01-11T00:27:39.141Z,6.27
2023-01-11T00:32:32.393Z,19.55
2023-01-11T00:37:25.711Z,16.03
2023-01-11T00:42:37.768Z,8.53
2023-01-11T00:47:48.504Z,7.30
2023-01-11T00:52:41.931Z,7.50
2023-01-11T00:57:36.680Z,9.67
2023-01-11T01:02:30.049Z,7.10
2023-01-11T01:07:23.405Z,6.13
2023-01-11T01:12:36.644Z,7.20
2023-01-11T01:17:33.588Z,6.33
2023-01-11T01:22:26.991Z,8.43
2023-01-11T01:27:20.445Z,7.17
2023-01-11T01:32:13.850Z,5.97
2023-01-11T01:37:09.800Z,9.37
2023-01-11T01:42:03.212Z,7.50
2023-01-11T01:46:56.797Z,4.77
2023-01-11T01:51:56.257Z,6.67
2023-01-11T01:56:54.266Z,5.33
2023-01-11T02:01:49.078Z,8.53
2023-01-11T02:06:43.558Z,7.70
2023-01-11T02:11:43.416Z,4.93
2023-01-11T02:16:38.439Z,5.70
2023-01-11T02:21:45.218Z,6.37
2023-01-11T02:27:12.162Z,5.97
2023-01-11T02:32:21.168Z,5.87
2023-01-11T02:37:27.744Z,8.20
2023-01-11T02:42:47.037Z,7.57
2023-01-11T02:47:50.548Z,16.20
2023-01-11T02:52:52.830Z,10.10
2023-01-11T02:57:47.678Z,8.27
2023-01-11T03:02:42.511Z,6.63
2023-01-11T03:07:55.142Z,5.87
2023-01-11T03:13:01.728Z,6.40
2023-01-11T03:18:08.889Z,8.30
2023-01-11T03:23:15.592Z,6.33
2023-01-11T03:28:18.589Z,8.07
2023-01-11T03:33:22.728Z,7.97
2023-01-11T03:38:24.707Z,8.97
2023-01-11T03:43:22.223Z,9.37
2023-01-11T03:48:23.695Z,14.17
2023-01-11T03:53:23.925Z,12.60
2023-01-11T03:58:17.495Z,11.18
2023-01-11T04:03:12.806Z,15.37
2023-01-11T04:08:12.875Z,16.27
2023-01-11T04:13:06.351Z,11.13
2023-01-11T04:18:04.876Z,11.30
2023-01-11T04:23:00.413Z,9.00
2023-01-11T04:27:55.345Z,7.53
2023-01-11T04:32:51.037Z,13.97
2023-01-11T04:37:53.188Z,18.10
2023-01-11T04:42:48.051Z,22.47
2023-01-11T04:47:47.909Z,15.47
2023-01-11T04:52:44.175Z,14.17
2023-01-11T04:57:37.630Z,20.50
2023-01-11T05:02:30.954Z,11.20
2023-01-11T05:07:25.824Z,11.53
2023-01-11T05:12:21.150Z,12.00
2023-01-11T05:17:20.719Z,12.07
2023-01-11T05:22:14.254Z,9.83
2023-01-11T05:27:09.489Z,12.53
2023-01-11T05:32:03.007Z,15.53
2023-01-11T05:37:05.247Z,14.73
2023-01-11T05:41:58.882Z,15.57
2023-01-11T05:46:58.675Z,22.07
2023-01-11T05:51:52.048Z,17.20
2023-01-11T05:56:45.293Z,20.43
2023-01-11T06:01:39.465Z,13.07
2023-01-11T06:06:34.620Z,12.57
2023-01-11T06:11:27.980Z,13.97
2023-01-11T06:16:23.838Z,35.80
2023-01-11T06:21:18.388Z,38.00
2023-01-11T06:26:15.231Z,48.63
2023-01-11T06:31:08.718Z,34.30
2023-01-11T06:36:06.315Z,19.20
2023-01-11T06:41:01.582Z,31.10
2023-01-11T06:45:59.102Z,30.43
2023-01-11T06:50:54.796Z,30.17
2023-01-11T06:55:51.418Z,30.73
2023-01-11T07:00:44.696Z,27.03
2023-01-11T07:05:39.945Z,24.77
2023-01-11T07:10:33.211Z,27.17
2023-01-11T07:15:26.467Z,35.60
2023-01-11T07:20:19.962Z,49.43
2023-01-11T07:25:14.777Z,37.37
2023-01-11T07:30:10.064Z,25.83
2023-01-11T07:35:03.597Z,32.37
2023-01-11T07:39:56.981Z,52.63
2023-01-11T07:44:51.790Z,30.50
2023-01-11T07:49:45.080Z,25.97
2023-01-11T07:54:38.421Z,23.63
2023-01-11T07:59:31.706Z,19.77
2023-01-11T08:04:32.540Z,21.13
2023-01-11T08:09:26.841Z,27.47
2023-01-11T08:14:41.890Z,27.13
2023-01-11T08:19:39.218Z,19.07
2023-01-11T08:24:34.135Z,6.63
2023-01-11T08:29:48.037Z,10.67
2023-01-11T08:34:45.230Z,11.30
2023-01-11T08:39:38.566Z,15.20
2023-01-11T08:44:37.645Z,17.50
2023-01-11T08:49:34.237Z,15.87
2023-01-11T08:54:29.373Z,14.70
2023-01-11T08:59:23.326Z,18.17
2023-01-11T09:04:24.592Z,13.57
2023-01-11T09:09:20.483Z,27.53
2023-01-11T09:14:28.342Z,18.67
2023-01-11T09:19:23.037Z,15.07
2023-01-11T09:24:25.228Z,20.37
2023-01-11T09:29:23.431Z,10.60
2023-01-11T09:34:21.267Z,10.23
2023-01-11T09:39:18.713Z,13.80
2023-01-11T09:44:19.089Z,16.90
2023-01-11T09:49:45.974Z,16.13
2023-01-11T09:54:40.593Z,16.33
2023-01-11T10:00:41.568Z,17.53
2023-01-11T10:05:58.782Z,20.77
2023-01-11T10:18:28.383Z,70.97
2023-01-11T10:21:49.592Z,36.80
2023-01-11T10:26:43.115Z,45.70
2023-01-11T10:31:56.026Z,23.13
2023-01-11T10:37:17.240Z,36.10
2023-01-11T10:42:18.580Z,25.13
2023-01-11T10:47:52.700Z,21.80
2023-01-11T10:52:58.986Z,25.77
2023-01-11T10:58:04.384Z,40.13
2023-01-11T11:03:20.350Z,23.27
2023-01-11T11:08:22.641Z,18.87
2023-01-11T11:13:22.595Z,23.23
2023-01-11T11:18:18.715Z,17.63
2023-01-11T11:23:16.996Z,38.80
2023-01-11T11:28:26.782Z,42.60
2023-01-11T11:33:23.849Z,20.50
2023-01-11T11:38:25.319Z,36.83
2023-01-11T11:43:24.156Z,46.47
2023-01-11T11:48:23.153Z,64.43
2023-01-11T11:53:41.207Z,41.60
2023-01-11T11:58:35.574Z,44.03
2023-01-11T12:03:33.351Z,43.73
2023-01-11T12:08:27.197Z,42.63
2023-01-11T12:13:32.825Z,30.42
2023-01-11T12:18:35.930Z,18.87
2023-01-11T12:23:37.406Z,18.08
2023-01-11T12:28:48.280Z,21.52
2023-01-11T12:38:59.834Z,26.10
2023-01-11T12:44:23.500Z,25.92
2023-01-11T12:49:36.034Z,27.08
2023-01-11T12:54:48.246Z,25.20
2023-01-11T13:00:01.494Z,11.53
2023-01-11T13:05:09.319Z,8.52
2023-01-11T13:10:30.035Z,13.07
2023-01-11T13:15:34.736Z,11.10
2023-01-11T13:20:59.267Z,25.43
2023-01-11T13:26:02.220Z,18.17
2023-01-11T13:30:58.494Z,7.17
2023-01-11T13:35:56.822Z,6.73
2023-01-11T13:40:58.951Z,7.27
2023-01-11T13:46:05.848Z,9.33
2023-01-11T13:51:07.661Z,7.33
2023-01-11T13:56:08.210Z,8.70
2023-01-11T14:06:15.090Z,8.03
2023-01-11T14:11:20.816Z,11.30
2023-01-11T14:16:22.819Z,10.53
2023-01-11T14:21:23.534Z,10.77
2023-01-11T14:26:56.401Z,9.00
2023-01-11T14:32:15.553Z,11.40
2023-01-11T14:37:28.902Z,15.33
2023-01-11T14:43:02.304Z,16.93
2023-01-11T14:48:15.816Z,16.43
2023-01-11T14:53:15.685Z,30.37
2023-01-11T14:58:19.091Z,28.98
2023-01-11T15:03:48.887Z,18.70
2023-01-11T15:08:50.135Z,19.73
2023-01-11T15:13:49.097Z,18.60
2023-01-11T15:18:46.879Z,20.13
2023-01-11T15:23:50.555Z,23.07
2023-01-11T15:28:54.568Z,22.60
2023-01-11T15:33:51.084Z,30.93
2023-01-11T15:38:52.225Z,25.33
2023-01-11T15:44:19.837Z,20.37
2023-01-11T15:49:42.289Z,29.13
2023-01-11T15:55:09.851Z,43.53
2023-01-11T16:00:33.909Z,21.00
2023-01-11T16:05:31.663Z,26.07
2023-01-11T16:11:08.623Z,23.83
2023-01-11T16:16:19.791Z,23.10
2023-01-11T16:21:19.937Z,18.23
2023-01-11T16:26:20.558Z,16.45
2023-01-11T16:31:26.080Z,23.00
2023-01-11T16:36:26.934Z,17.20
2023-01-11T16:41:22.051Z,17.30
2023-01-11T16:46:52.792Z,16.63
2023-01-11T16:51:48.572Z,21.97
2023-01-11T16:56:49.589Z,14.13
2023-01-11T17:02:15.071Z,25.63
2023-01-11T17:07:15.291Z,19.97
2023-01-11T17:12:19.037Z,16.80
2023-01-11T17:17:15.364Z,17.03
2023-01-11T17:22:15.780Z,16.70
2023-01-11T17:27:19.276Z,17.42
2023-01-11T17:32:22.706Z,16.50
2023-01-11T17:37:18.051Z,15.23
2023-01-11T17:42:45.237Z,14.67
2023-01-11T17:47:46.839Z,18.77
2023-01-11T17:52:54.047Z,17.83
2023-01-11T17:58:12.669Z,22.43
2023-01-11T18:03:14.529Z,13.33
2023-01-11T18:08:18.327Z,12.90
2023-01-11T18:13:25.352Z,13.10
2023-01-11T18:18:42.730Z,10.40
2023-01-11T18:23:36.214Z,16.17
2023-01-11T18:28:32.350Z,20.33
2023-01-11T18:33:33.728Z,16.87
2023-01-11T18:38:33.398Z,14.20
2023-01-11T18:43:33.809Z,16.23
2023-01-11T18:48:30.369Z,18.58
2023-01-11T18:53:24.705Z,12.37
2023-01-11T18:58:21.211Z,19.47
2023-01-11T19:08:13.919Z,18.13
2023-01-11T19:13:07.394Z,13.73
2023-01-11T19:18:03.398Z,18.47
2023-01-11T19:22:57.040Z,17.73
2023-01-11T19:27:50.639Z,23.37
2023-01-11T19:32:44.213Z,19.87
2023-01-11T19:37:39.644Z,18.67
2023-01-11T19:42:33.417Z,16.10
2023-01-11T19:47:29.171Z,16.47
2023-01-11T19:52:22.628Z,16.80
2023-01-11T19:57:20.795Z,20.13
2023-01-11T20:02:17.512Z,15.10
2023-01-11T20:07:12.392Z,14.03
2023-01-11T20:12:09.239Z,15.50
2023-01-11T20:17:04.143Z,12.63
2023-01-11T20:22:00.542Z,11.97
2023-01-11T20:26:57.909Z,12.93
2023-01-11T20:31:51.536Z,11.90
2023-01-11T20:36:49.129Z,12.10
2023-01-11T20:41:48.666Z,12.47
2023-01-11T20:46:42.207Z,11.30
2023-01-11T20:51:36.156Z,16.13
2023-01-11T20:56:33.188Z,14.53
2023-01-11T21:01:26.791Z,13.10
2023-01-11T21:06:20.345Z,15.93
2023-01-11T21:11:16.376Z,14.23
2023-01-11T21:16:13.261Z,11.10
2023-01-11T21:21:07.239Z,13.63
2023-01-11T21:26:00.606Z,11.30
2023-01-11T21:30:53.985Z,12.40
2023-01-11T21:35:49.927Z,16.30
2023-01-11T21:40:43.416Z,15.73
2023-01-11T21:45:36.793Z,11.43
2023-01-11T21:50:30.006Z,14.07
2023-01-11T21:55:26.970Z,11.47
2023-01-11T22:00:23.720Z,11.33
2023-01-11T22:05:17.153Z,16.43
2023-01-11T22:10:12.453Z,12.60
2023-01-11T22:15:08.673Z,10.20
2023-01-11T22:20:03.837Z,11.80
2023-01-11T22:24:57.524Z,10.03
2023-01-11T22:29:52.210Z,11.97
2023-01-11T22:34:46.894Z,11.03
2023-01-11T22:39:40.728Z,9.43
2023-01-11T22:44:34.466Z,11.30
2023-01-11T22:49:27.690Z,10.57
2023-01-11T22:54:23.060Z,8.27
2023-01-11T22:59:16.246Z,11.57
2023-01-11T23:04:13.694Z,11.57
2023-01-11T23:09:09.470Z,10.93
2023-01-11T23:14:05.082Z,9.83
2023-01-11T23:18:58.774Z,11.23
2023-01-11T23:23:52.088Z,11.33
2023-01-11T23:28:49.643Z,12.17
2023-01-11T23:33:44.875Z,14.57
2023-01-11T23:38:38.113Z,12.83
2023-01-11T23:43:31.387Z,12.27
2023-01-11T23:48:30.588Z,9.60
2023-01-11T23:53:25.142Z,7.73
2023-01-11T23:58:19.745Z,10.73
